RIPO2: Cimarron River Near Ripley, OK

Data processed at Fri Dec 08 2017 23:02


All information presented herein is the property of the government of the United States of America and may be revised or deleted at any time without prior notice.
Dissemination of this information without the expressed written consent of the Public Affairs Office, Tulsa District U.S. Army Corps of Engineers is strictly prohibited.
These data are gathered electronically and, as presented, have not undergone any form of quality control. These data are not guaranteed to be valid or correct.
Go to home page.
Go to station list.

Upstream stations:

Downstream station:
Previous Day
Next Day
Current Day
    
SHEF ID:       RIPO2     Cimarron River near Ripley, OK
STATION TYPE:  

               PRECIP     STAGE  RIV-FLOW  BAT-LOAD
                   in        ft       cfs      volt
              Ccp-Rev   Ccp-Rev   Ccp-Rev   Ccp-Rev
(US/Central)
12/06 00:00      0.00      8.19       328     12.49
12/06 01:00      0.00      8.19       328     12.49
12/06 02:00      0.00      8.20       332     12.41
12/06 03:00      0.00      8.19       328     12.41
12/06 04:00      0.00      8.19       328     12.41
12/06 05:00      0.00      8.19       328     12.41
12/06 06:00      0.00      8.20       332     12.41
12/06 07:00      0.00      8.20       332     12.33
12/06 08:00      0.00      8.20       332     12.33
12/06 09:00      0.00      8.20       332     12.41
12/06 10:00      0.00      8.19       328     13.21
12/06 11:00      0.00      8.18       324     13.76
12/06 12:00      0.00      8.12       300     13.84
12/06 13:00      0.00      8.16       316     13.84
12/06 14:00      0.00      8.12       300     13.76
12/06 15:00      0.00      8.19       328     13.68
12/06 16:00      0.00      8.14       308     13.60
12/06 17:00      0.00      8.14       308     13.53
12/06 18:00      0.00      8.22       340     13.37
12/06 19:00      0.00      8.22       340     12.97
12/06 20:00      0.00      8.21       336     12.65
12/06 21:00      0.00      8.21       336     12.57
12/06 22:00      0.00      8.21       336     12.49
12/06 23:00      0.00      8.21       336     12.49